Terminal Aerodrome Forecast
Issued by NWS

Home | Current Version | Previous Version | Graphics & Text | Print | Product List | Glossary On
Versions: 1 2 3 4 5 6 7 8 9 10 11 12 13 14 15 16
000
FTUS43 KICT 201137
TAFHUT
TAF
KHUT 201137Z 2012/2112 16014KT 6SM BR SCT003 OVC006
     FM201400 19011KT P6SM SCT008 BKN100
     FM201600 21013G19KT P6SM BKN100
     FM202000 25011KT P6SM SKC
     FM202300 33011KT P6SM SKC=

USA.gov is the U.S. government's official web portal to all federal, state and local government web resources and services.